Time;durP1;ratioP1;P1;durP2;ratioP2;P2;SDS_P1;SDS_P2;PMS_P1;PMS_P2;Temp;Humidity;BMP_temperature;BMP_pressure;BME280_temperature;BME280_humidity;BME280_pressure;Samples;Min_cycle;Max_cycle;Signal;HPM_P1;HPM_P2
2023/06/21 00:00:24;;;;;;;13.57;4.03;;;23.80;77.30;;;;;;5086354;28;20453;-80
2023/06/21 00:02:55;;;;;;;11.10;5.37;;;23.80;77.30;;;;;;5092868;28;20444;-79
2023/06/21 00:05:23;;;;;;;15.17;4.00;;;23.80;77.30;;;;;;5093426;28;20961;-79
2023/06/21 00:07:53;;;;;;;10.90;4.00;;;23.80;77.20;;;;;;5090993;28;20452;-80
2023/06/21 00:10:23;;;;;;;10.13;3.60;;;23.70;77.20;;;;;;5088979;28;20514;-79
2023/06/21 00:12:54;;;;;;;8.00;4.23;;;23.70;77.20;;;;;;5087297;28;20833;-81
2023/06/21 00:15:23;;;;;;;10.63;3.70;;;23.70;77.30;;;;;;5098055;28;20466;-81
2023/06/21 00:17:51;;;;;;;7.93;4.17;;;23.60;77.20;;;;;;5074027;28;20465;-80
2023/06/21 00:20:20;;;;;;;9.40;4.37;;;23.60;77.20;;;;;;5089140;28;20895;-82
2023/06/21 00:22:55;;;;;;;9.20;4.43;;;23.60;77.20;;;;;;5096964;28;20455;-79
2023/06/21 00:25:25;;;;;;;9.43;4.47;;;23.60;77.30;;;;;;5091234;28;20453;-79
2023/06/21 00:27:53;;;;;;;9.60;3.77;;;23.60;77.30;;;;;;5097344;28;20449;-80
2023/06/21 00:30:21;;;;;;;8.70;4.63;;;23.60;77.30;;;;;;5093635;28;20570;-78
2023/06/21 00:32:50;;;;;;;8.47;4.70;;;23.60;77.30;;;;;;5086540;28;20501;-83
2023/06/21 00:35:22;;;;;;;11.07;4.03;;;23.60;77.20;;;;;;5071631;28;20930;-79
2023/06/21 00:37:50;;;;;;;17.03;6.03;;;23.60;77.20;;;;;;5072807;28;20563;-79
2023/06/21 00:40:22;;;;;;;10.20;3.97;;;23.60;77.10;;;;;;5071301;28;20468;-79
2023/06/21 00:42:50;;;;;;;13.73;4.83;;;23.60;77.00;;;;;;5091138;28;20946;-81
2023/06/21 00:45:18;;;;;;;14.07;3.27;;;23.50;77.10;;;;;;5068211;28;20457;-79
2023/06/21 00:47:46;;;;;;;12.47;4.80;;;23.50;77.10;;;;;;5070244;28;20540;-77
2023/06/21 00:50:15;;;;;;;11.37;3.47;;;23.50;77.00;;;;;;5081653;28;20535;-77
2023/06/21 00:52:44;;;;;;;11.83;4.60;;;23.50;77.00;;;;;;5070385;28;20544;-79
2023/06/21 00:55:13;;;;;;;16.77;4.17;;;23.50;77.00;;;;;;5067920;28;20832;-82
2023/06/21 00:57:44;;;;;;;9.80;3.73;;;23.40;77.00;;;;;;5095330;28;20486;-80
2023/06/21 01:00:20;;;;;;;11.17;3.87;;;23.40;77.00;;;;;;5066743;28;20487;-83
2023/06/21 01:02:48;;;;;;;13.23;3.67;;;23.40;77.00;;;;;;5091584;28;20536;-83
2023/06/21 01:05:17;;;;;;;14.70;4.70;;;23.30;77.00;;;;;;5089588;28;20446;-83
2023/06/21 01:08:00;;;;;;;11.27;4.00;;;23.30;76.90;;;;;;5073753;28;20464;-84
2023/06/21 01:10:44;;;;;;;11.13;4.70;;;23.30;76.90;;;;;;5076114;28;20508;-80
2023/06/21 01:13:23;;;;;;;12.07;4.73;;;23.20;76.90;;;;;;5084183;28;20471;-81
2023/06/21 01:15:58;;;;;;;14.50;4.93;;;23.20;76.80;;;;;;5070640;28;20556;-79
2023/06/21 01:18:27;;;;;;;13.20;4.80;;;23.20;76.80;;;;;;5093070;28;20456;-80
2023/06/21 01:20:57;;;;;;;19.83;5.57;;;23.10;76.90;;;;;;5068270;28;20471;-80
2023/06/21 01:23:45;;;;;;;15.50;5.03;;;23.10;76.90;;;;;;5073935;28;20952;-80
2023/06/21 01:26:22;;;;;;;12.60;3.60;;;23.00;76.80;;;;;;5090293;28;20538;-79
2023/06/21 01:29:07;;;;;;;13.97;3.37;;;23.00;76.80;;;;;;5073622;28;20492;-79
2023/06/21 01:31:38;;;;;;;15.83;3.80;;;22.90;76.70;;;;;;5086619;28;20476;-83
2023/06/21 01:34:08;;;;;;;12.20;4.30;;;22.90;76.80;;;;;;5078586;28;20530;-81
2023/06/21 01:36:39;;;;;;;9.20;2.93;;;22.90;76.80;;;;;;5080940;28;20540;-81
2023/06/21 01:39:09;;;;;;;8.17;3.23;;;22.80;76.80;;;;;;5075632;28;20449;-82
2023/06/21 01:41:39;;;;;;;15.43;4.03;;;22.80;76.90;;;;;;5096683;28;20957;-80
2023/06/21 01:44:10;;;;;;;9.47;3.70;;;22.80;77.00;;;;;;5076943;28;20451;-82
2023/06/21 01:46:40;;;;;;;14.00;4.07;;;22.80;77.10;;;;;;5077673;28;20457;-80
2023/06/21 01:49:10;;;;;;;8.27;3.97;;;22.80;77.10;;;;;;5078946;28;20831;-83
2023/06/21 01:51:56;;;;;;;15.00;4.40;;;22.80;77.20;;;;;;5075544;28;20461;-80
2023/06/21 01:54:25;;;;;;;17.00;4.00;;;22.80;77.00;;;;;;5085355;28;20842;-80
2023/06/21 01:56:59;;;;;;;22.63;5.43;;;22.70;76.90;;;;;;5073487;28;20452;-83
2023/06/21 01:59:31;;;;;;;13.23;4.33;;;22.70;77.00;;;;;;5068519;28;20450;-80
2023/06/21 02:02:03;;;;;;;17.57;4.53;;;22.70;77.10;;;;;;5084910;28;20537;-82
2023/06/21 02:04:33;;;;;;;15.70;4.73;;;22.70;77.00;;;;;;5097525;28;20474;-81
2023/06/21 02:07:02;;;;;;;13.00;5.20;;;22.70;77.00;;;;;;5091545;28;20509;-80
2023/06/21 02:09:31;;;;;;;18.93;5.93;;;22.60;77.00;;;;;;5071705;28;20455;-82
2023/06/21 02:12:00;;;;;;;15.40;5.00;;;22.60;77.10;;;;;;5095844;28;20546;-83
2023/06/21 02:14:30;;;;;;;20.60;5.60;;;22.60;77.10;;;;;;5082401;28;20492;-80
2023/06/21 02:17:08;;;;;;;23.87;4.90;;;22.50;77.10;;;;;;5077984;28;20480;-83
2023/06/21 02:19:39;;;;;;;19.70;5.30;;;22.50;77.00;;;;;;5070450;28;20482;-79
2023/06/21 02:22:07;;;;;;;18.50;4.63;;;22.50;76.90;;;;;;5083530;28;20495;-83
2023/06/21 02:24:35;;;;;;;18.67;5.00;;;22.50;76.90;;;;;;5095707;28;20463;-80
2023/06/21 02:27:04;;;;;;;13.87;5.03;;;22.50;77.00;;;;;;5079314;28;20456;-83
2023/06/21 02:29:33;;;;;;;17.00;5.50;;;22.50;76.90;;;;;;5088958;28;20939;-83
2023/06/21 02:32:02;;;;;;;14.83;5.23;;;22.40;76.90;;;;;;5089446;28;20469;-83
2023/06/21 02:34:40;;;;;;;15.67;4.90;;;22.40;77.00;;;;;;5072949;28;20564;-81
2023/06/21 02:37:11;;;;;;;21.90;6.40;;;22.50;76.80;;;;;;5071157;28;20490;-80
2023/06/21 02:39:40;;;;;;;20.63;5.40;;;22.40;76.90;;;;;;5074725;28;20459;-80
2023/06/21 02:42:08;;;;;;;15.83;5.77;;;22.40;76.90;;;;;;5092747;28;20461;-81
2023/06/21 02:44:37;;;;;;;19.63;5.73;;;22.40;76.90;;;;;;5102029;28;20822;-80
2023/06/21 02:47:06;;;;;;;13.63;5.20;;;22.40;76.90;;;;;;5069363;28;20483;-80
2023/06/21 02:49:36;;;;;;;15.77;5.93;;;22.40;77.00;;;;;;5083879;28;20493;-81
2023/06/21 02:52:05;;;;;;;29.70;6.47;;;22.50;77.00;;;;;;5093571;28;20497;-80
2023/06/21 02:54:33;;;;;;;23.37;5.73;;;22.50;76.90;;;;;;5077184;28;20476;-80
2023/06/21 02:57:01;;;;;;;26.60;6.23;;;22.40;76.70;;;;;;5093599;28;20477;-78
2023/06/21 02:59:29;;;;;;;18.80;6.50;;;22.40;76.60;;;;;;5088998;28;20496;-78
2023/06/21 03:02:00;;;;;;;24.53;6.83;;;22.30;76.60;;;;;;5089388;28;20573;-81
2023/06/21 03:04:28;;;;;;;15.97;6.10;;;22.30;76.60;;;;;;5079512;28;20914;-84
2023/06/21 03:06:57;;;;;;;12.07;5.50;;;22.30;76.40;;;;;;5073925;28;20454;-82
2023/06/21 03:09:29;;;;;;;13.73;5.87;;;22.20;76.40;;;;;;5091991;28;20486;-81
2023/06/21 03:11:58;;;;;;;12.17;5.17;;;22.20;76.50;;;;;;5085935;28;20449;-81
2023/06/21 03:14:26;;;;;;;13.20;5.20;;;22.10;76.60;;;;;;5070102;28;20460;-83
2023/06/21 03:16:54;;;;;;;13.70;5.27;;;22.10;76.60;;;;;;5091481;28;20445;-80
2023/06/21 03:19:23;;;;;;;22.10;7.10;;;22.10;76.70;;;;;;5070989;28;20551;-84
2023/06/21 03:21:51;;;;;;;12.90;5.30;;;22.10;76.80;;;;;;5068756;28;20470;-81
2023/06/21 03:24:21;;;;;;;14.13;6.37;;;22.20;76.80;;;;;;5074629;28;20526;-82
2023/06/21 03:26:49;;;;;;;9.33;6.07;;;22.10;76.80;;;;;;5069008;28;20457;-81
2023/06/21 03:29:17;;;;;;;12.33;6.37;;;22.10;76.90;;;;;;5072834;28;20480;-81
2023/06/21 03:31:46;;;;;;;18.07;6.37;;;22.10;77.00;;;;;;5080997;28;20534;-84
2023/06/21 03:34:14;;;;;;;14.60;6.40;;;22.10;77.00;;;;;;5072798;28;20451;-84
2023/06/21 03:36:44;;;;;;;16.53;6.73;;;22.20;77.10;;;;;;5083843;28;20501;-81
2023/06/21 03:39:12;;;;;;;11.73;6.70;;;22.20;77.20;;;;;;5076922;28;20575;-83
2023/06/21 03:41:40;;;;;;;19.27;7.47;;;22.20;77.20;;;;;;5084423;28;20548;-80
2023/06/21 03:44:08;;;;;;;13.87;8.00;;;22.20;77.40;;;;;;5069271;28;20828;-83
2023/06/21 03:46:36;;;;;;;14.47;7.87;;;22.20;77.40;;;;;;5085370;28;20440;-82
2023/06/21 03:49:05;;;;;;;16.07;8.20;;;22.20;77.50;;;;;;5071806;28;20458;-81
2023/06/21 03:51:33;;;;;;;14.43;8.00;;;22.20;77.60;;;;;;5073361;28;21006;-80
2023/06/21 03:54:04;;;;;;;19.57;7.53;;;22.20;77.70;;;;;;5079902;28;20571;-84
2023/06/21 03:56:32;;;;;;;18.17;6.90;;;22.30;77.70;;;;;;5095312;28;21078;-84
2023/06/21 03:59:00;;;;;;;18.10;8.17;;;22.30;77.70;;;;;;5069672;28;20449;-81
2023/06/21 04:01:28;;;;;;;23.80;8.57;;;22.30;77.70;;;;;;5075156;28;20483;-80
2023/06/21 04:03:57;;;;;;;21.10;8.47;;;22.40;77.70;;;;;;5078392;28;20498;-82
2023/06/21 04:06:26;;;;;;;15.93;8.30;;;22.40;77.80;;;;;;5089892;28;20551;-81
2023/06/21 04:08:53;;;;;;;15.00;7.60;;;22.40;77.90;;;;;;5083126;28;20534;-84
2023/06/21 04:11:23;;;;;;;13.73;7.50;;;22.50;78.00;;;;;;5072640;28;20466;-81
2023/06/21 04:13:52;;;;;;;15.43;7.93;;;22.50;78.00;;;;;;5090135;28;20456;-81
2023/06/21 04:16:19;;;;;;;12.70;7.10;;;22.60;78.00;;;;;;5070984;28;20478;-83
2023/06/21 04:18:47;;;;;;;14.30;7.07;;;22.60;78.00;;;;;;5093226;28;20496;-81
2023/06/21 04:21:15;;;;;;;12.10;7.03;;;22.70;78.10;;;;;;5071626;28;20456;-82
2023/06/21 04:23:43;;;;;;;12.70;7.63;;;22.70;78.20;;;;;;5076458;28;20484;-82
2023/06/21 04:26:12;;;;;;;10.87;6.90;;;22.80;78.20;;;;;;5081593;28;20534;-82
2023/06/21 04:28:48;;;;;;;13.47;7.40;;;22.90;78.20;;;;;;5093807;28;20539;-82
2023/06/21 04:31:16;;;;;;;10.07;7.20;;;23.00;78.40;;;;;;5066056;28;20460;-81
2023/06/21 04:34:34;;;;;;;14.93;7.90;;;23.00;78.20;;;;;;5079195;28;20461;-81
2023/06/21 04:37:05;;;;;;;15.63;7.33;;;23.10;78.20;;;;;;5072724;28;20982;-83
2023/06/21 04:39:34;;;;;;;14.13;7.27;;;23.10;78.30;;;;;;5089569;28;20452;-82
2023/06/21 04:42:02;;;;;;;23.13;9.23;;;23.20;78.30;;;;;;5087607;28;20456;-79
2023/06/21 04:44:32;;;;;;;11.87;7.97;;;23.20;78.20;;;;;;5073040;28;20457;-81
2023/06/21 04:47:01;;;;;;;15.17;8.37;;;23.10;78.20;;;;;;5095777;28;20440;-83
2023/06/21 04:49:30;;;;;;;13.47;7.97;;;23.10;78.40;;;;;;5099689;28;20533;-82
2023/06/21 04:51:58;;;;;;;13.07;9.13;;;23.10;78.50;;;;;;5075866;28;20453;-80
2023/06/21 04:54:29;;;;;;;13.50;9.83;;;23.10;78.50;;;;;;5095957;28;20456;-82
2023/06/21 04:56:57;;;;;;;16.00;10.30;;;23.10;78.60;;;;;;5082871;28;21020;-82
2023/06/21 04:59:25;;;;;;;21.63;11.10;;;23.00;78.70;;;;;;5071350;28;20544;-80
2023/06/21 05:01:54;;;;;;;15.20;11.10;;;23.00;78.80;;;;;;5018310;28;20495;-81
2023/06/21 05:04:22;;;;;;;22.40;14.07;;;23.10;79.00;;;;;;5081130;28;20466;-80
2023/06/21 05:06:53;;;;;;;22.53;15.80;;;23.10;79.10;;;;;;5071762;28;21119;-83
2023/06/21 05:09:21;;;;;;;23.53;15.80;;;23.20;79.20;;;;;;5069736;28;20459;-79
2023/06/21 05:11:49;;;;;;;25.90;16.07;;;23.20;79.20;;;;;;5084257;28;20467;-80
2023/06/21 05:14:17;;;;;;;21.93;15.77;;;23.20;79.30;;;;;;5071275;28;20541;-80
2023/06/21 05:16:47;;;;;;;23.60;16.13;;;23.20;79.40;;;;;;5091888;28;20468;-82
2023/06/21 05:19:16;;;;;;;21.83;16.07;;;23.30;79.40;;;;;;5089156;28;20965;-83
2023/06/21 05:21:45;;;;;;;20.20;14.97;;;23.30;79.50;;;;;;5091870;28;20542;-83
2023/06/21 05:24:13;;;;;;;24.43;14.37;;;23.30;79.50;;;;;;5091194;28;20453;-83
2023/06/21 05:26:44;;;;;;;26.30;17.17;;;23.40;79.60;;;;;;5091748;28;21343;-83
2023/06/21 05:29:38;;;;;;;21.37;15.97;;;23.40;79.60;;;;;;5081274;28;20513;-84
2023/06/21 05:32:07;;;;;;;19.10;15.30;;;23.50;79.60;;;;;;5088620;28;20471;-83
2023/06/21 05:34:36;;;;;;;25.40;16.80;;;23.50;79.50;;;;;;5089854;28;20458;-84
2023/06/21 05:37:04;;;;;;;20.83;15.87;;;23.60;79.50;;;;;;5088392;28;20506;-83
2023/06/21 05:39:32;;;;;;;20.10;15.07;;;23.60;79.50;;;;;;5069986;28;20536;-80
2023/06/21 05:42:00;;;;;;;23.03;15.13;;;23.60;79.60;;;;;;5094153;28;20446;-82
2023/06/21 05:44:28;;;;;;;21.07;13.37;;;23.60;79.60;;;;;;5086711;28;20540;-81
2023/06/21 05:46:56;;;;;;;20.43;15.00;;;23.60;79.60;;;;;;5081954;28;20441;-83
2023/06/21 05:49:24;;;;;;;22.33;14.40;;;23.60;79.70;;;;;;5058914;28;20512;-82
2023/06/21 05:51:53;;;;;;;23.03;15.73;;;23.60;79.80;;;;;;5094267;28;20453;-85
2023/06/21 05:54:21;;;;;;;20.43;16.30;;;23.60;79.90;;;;;;5071508;28;20549;-85
2023/06/21 05:56:52;;;;;;;28.80;17.60;;;23.60;79.90;;;;;;5072520;28;20904;-81
2023/06/21 05:59:19;;;;;;;18.83;15.23;;;23.60;80.00;;;;;;5077145;28;20492;-84
2023/06/21 06:01:47;;;;;;;27.27;16.40;;;23.60;80.00;;;;;;5078805;28;20849;-83
2023/06/21 06:04:15;;;;;;;26.07;16.37;;;23.60;80.10;;;;;;5101087;28;20876;-81
2023/06/21 06:06:44;;;;;;;18.27;16.07;;;23.60;80.20;;;;;;5097827;28;20472;-82
2023/06/21 06:09:13;;;;;;;19.63;16.53;;;23.70;80.20;;;;;;5087142;28;20961;-83
2023/06/21 06:11:41;;;;;;;20.20;16.37;;;23.70;80.20;;;;;;5067592;28;20465;-81
2023/06/21 06:14:11;;;;;;;23.10;15.63;;;23.80;80.20;;;;;;5076098;28;20959;-82
2023/06/21 06:16:39;;;;;;;21.00;14.80;;;23.80;80.10;;;;;;5089327;28;20469;-81
2023/06/21 06:19:07;;;;;;;20.07;15.10;;;23.80;80.10;;;;;;5079881;28;20954;-82
2023/06/21 06:21:36;;;;;;;21.47;16.63;;;23.80;80.00;;;;;;5074381;28;20956;-82
2023/06/21 06:24:05;;;;;;;23.80;17.30;;;23.80;80.10;;;;;;5095628;28;20468;-85
2023/06/21 06:26:34;;;;;;;24.83;16.20;;;23.90;80.20;;;;;;5074360;28;20456;-81
2023/06/21 06:29:02;;;;;;;24.20;15.37;;;23.90;80.40;;;;;;5066266;28;21409;-83
2023/06/21 06:31:31;;;;;;;21.17;16.17;;;23.90;80.40;;;;;;5087877;28;20580;-84
2023/06/21 06:33:59;;;;;;;19.03;14.40;;;24.00;80.30;;;;;;5091581;28;20453;-83
2023/06/21 06:36:27;;;;;;;19.67;15.50;;;24.00;80.20;;;;;;5069237;28;20464;-83
2023/06/21 06:38:55;;;;;;;21.07;15.60;;;24.00;80.20;;;;;;5082270;28;20495;-82
2023/06/21 06:41:23;;;;;;;19.97;16.70;;;24.10;80.30;;;;;;5072031;28;20492;-82
2023/06/21 06:43:54;;;;;;;26.70;16.70;;;24.10;80.30;;;;;;5068378;28;20465;-82
2023/06/21 06:46:23;;;;;;;22.50;16.20;;;24.10;80.30;;;;;;5072633;28;20494;-84
2023/06/21 06:48:51;;;;;;;22.63;17.30;;;24.10;80.30;;;;;;5083558;28;20539;-82
2023/06/21 06:51:19;;;;;;;21.80;16.47;;;24.20;80.20;;;;;;5088195;28;21083;-83
2023/06/21 06:53:48;;;;;;;19.63;16.97;;;24.20;80.20;;;;;;5086977;28;20445;-83
2023/06/21 06:56:17;;;;;;;18.73;16.73;;;24.20;80.10;;;;;;5067654;28;20475;-81
2023/06/21 06:58:44;;;;;;;21.83;16.73;;;24.20;79.90;;;;;;5088782;28;20455;-83
2023/06/21 07:01:15;;;;;;;21.03;16.83;;;24.20;80.00;;;;;;5075763;28;20506;-80
2023/06/21 07:03:43;;;;;;;19.67;17.00;;;24.20;79.90;;;;;;5094142;28;20479;-81
2023/06/21 07:06:11;;;;;;;28.30;16.63;;;24.20;79.90;;;;;;5086915;28;20452;-82
2023/06/21 07:08:42;;;;;;;25.47;18.17;;;24.20;79.90;;;;;;5064893;28;20465;-83
2023/06/21 07:11:11;;;;;;;36.93;17.23;;;24.20;79.90;;;;;;5079731;28;20497;-86
2023/06/21 07:13:39;;;;;;;33.80;17.70;;;24.20;79.90;;;;;;5094410;28;21211;-83
2023/06/21 07:16:07;;;;;;;25.83;17.00;;;24.30;79.90;;;;;;5073344;28;21084;-82
2023/06/21 07:18:43;;;;;;;23.33;16.43;;;24.30;79.80;;;;;;5094482;28;20477;-83
2023/06/21 07:21:11;;;;;;;38.70;19.00;;;24.30;79.80;;;;;;5089898;28;20484;-86
2023/06/21 07:23:39;;;;;;;29.27;15.60;;;24.40;79.80;;;;;;5071593;28;20552;-84
2023/06/21 07:26:08;;;;;;;32.23;17.33;;;24.40;79.80;;;;;;5076166;28;20971;-82
2023/06/21 07:28:36;;;;;;;51.70;19.53;;;24.50;79.70;;;;;;5066294;28;20457;-83
2023/06/21 07:31:05;;;;;;;44.60;18.07;;;24.50;79.60;;;;;;5088432;28;20546;-80
2023/06/21 07:33:33;;;;;;;21.80;14.87;;;24.50;79.60;;;;;;5091833;28;20457;-83
2023/06/21 07:36:03;;;;;;;27.30;13.70;;;24.60;79.50;;;;;;5073564;28;20552;-82
2023/06/21 07:38:31;;;;;;;18.97;13.53;;;24.60;79.50;;;;;;5080885;28;20474;-81
2023/06/21 07:40:59;;;;;;;19.07;12.13;;;24.70;79.40;;;;;;5087445;28;20593;-80
2023/06/21 07:43:27;;;;;;;39.20;15.80;;;24.70;79.30;;;;;;5074456;28;20456;-82
2023/06/21 07:45:55;;;;;;;24.23;14.03;;;24.80;79.30;;;;;;5091045;28;20531;-85
2023/06/21 07:48:40;;;;;;;21.80;13.53;;;24.80;79.10;;;;;;5085709;28;20447;-81
2023/06/21 07:51:10;;;;;;;21.00;13.50;;;24.90;79.00;;;;;;5090028;28;20487;-81
2023/06/21 07:53:38;;;;;;;22.07;13.60;;;24.90;78.80;;;;;;5097451;28;20583;-80
2023/06/21 07:56:06;;;;;;;23.53;13.77;;;24.90;78.80;;;;;;5098884;28;20487;-81
2023/06/21 07:58:35;;;;;;;24.20;13.80;;;25.00;78.70;;;;;;5093027;28;20482;-82
2023/06/21 08:01:03;;;;;;;24.13;14.20;;;25.00;78.60;;;;;;5090488;28;20510;-85
2023/06/21 08:03:32;;;;;;;44.17;16.70;;;25.00;78.50;;;;;;5074768;28;21000;-81
2023/06/21 08:06:00;;;;;;;27.07;13.80;;;25.10;78.60;;;;;;5072593;28;20531;-82
2023/06/21 08:08:30;;;;;;;30.23;14.37;;;25.10;78.60;;;;;;5093056;28;20492;-85
2023/06/21 08:10:58;;;;;;;17.20;13.10;;;25.20;78.50;;;;;;5091502;28;20960;-83
2023/06/21 08:13:26;;;;;;;15.63;12.20;;;25.20;78.50;;;;;;5079629;28;20458;-82
2023/06/21 08:15:56;;;;;;;19.67;12.67;;;25.20;78.50;;;;;;5090672;28;21892;-85
2023/06/21 08:18:24;;;;;;;13.70;11.17;;;25.30;78.30;;;;;;5080773;28;20476;-84
2023/06/21 08:20:52;;;;;;;17.97;11.47;;;25.40;78.20;;;;;;5067181;28;20453;-83
2023/06/21 08:23:23;;;;;;;18.60;11.70;;;25.40;78.00;;;;;;5089282;28;20466;-83
2023/06/21 08:25:53;;;;;;;16.40;10.80;;;25.40;77.70;;;;;;5093425;28;20497;-80
2023/06/21 08:28:22;;;;;;;14.90;10.80;;;25.40;77.10;;;;;;5087631;28;21043;-84
2023/06/21 08:30:50;;;;;;;14.60;11.37;;;25.40;77.20;;;;;;5092665;28;21091;-83
2023/06/21 08:33:17;;;;;;;16.27;11.37;;;25.40;77.10;;;;;;5096171;28;20535;-83
2023/06/21 08:35:45;;;;;;;15.57;12.73;;;25.40;77.00;;;;;;5074395;28;20448;-83
2023/06/21 08:38:14;;;;;;;22.23;14.30;;;25.30;76.70;;;;;;5069937;28;20924;-84
2023/06/21 08:41:02;;;;;;;20.43;13.70;;;25.30;76.70;;;;;;5067454;28;20439;-83
2023/06/21 08:43:31;;;;;;;17.20;13.37;;;25.30;76.70;;;;;;5063077;28;20552;-84
2023/06/21 08:46:03;;;;;;;17.53;12.07;;;25.30;76.80;;;;;;5070678;28;20449;-81
2023/06/21 08:48:37;;;;;;;16.90;13.40;;;25.30;76.90;;;;;;5065416;28;20977;-84
2023/06/21 08:51:05;;;;;;;17.47;12.63;;;25.40;77.10;;;;;;5066928;28;20460;-82
2023/06/21 08:53:40;;;;;;;19.17;12.47;;;25.40;77.10;;;;;;5089018;28;20965;-83
2023/06/21 08:56:12;;;;;;;17.43;11.80;;;25.40;77.00;;;;;;5071253;28;20549;-83
2023/06/21 08:58:46;;;;;;;17.37;11.47;;;25.50;77.00;;;;;;5083941;28;20479;-83
2023/06/21 09:01:17;;;;;;;18.30;11.77;;;25.50;76.70;;;;;;5084608;28;21561;-83
2023/06/21 09:03:56;;;;;;;13.47;11.27;;;25.60;76.50;;;;;;5088262;28;20463;-83
2023/06/21 09:06:25;;;;;;;15.80;10.73;;;25.60;76.10;;;;;;5067928;28;20536;-81
2023/06/21 09:08:54;;;;;;;14.43;10.03;;;25.60;76.10;;;;;;5067135;28;21000;-82
2023/06/21 09:11:25;;;;;;;16.73;10.77;;;25.60;75.80;;;;;;5064777;28;20461;-83
2023/06/21 09:13:54;;;;;;;14.00;10.47;;;25.70;75.70;;;;;;5069409;28;21258;-83
2023/06/21 09:16:24;;;;;;;17.33;10.40;;;25.70;75.40;;;;;;5093985;28;20544;-82
2023/06/21 09:18:52;;;;;;;12.93;9.93;;;25.70;75.20;;;;;;5070843;28;20549;-85
2023/06/21 09:21:23;;;;;;;14.60;10.93;;;25.70;75.10;;;;;;5075020;28;20461;-84
2023/06/21 09:23:51;;;;;;;13.47;9.93;;;25.70;75.00;;;;;;5087926;28;20461;-82
2023/06/21 09:26:19;;;;;;;13.80;9.90;;;25.70;74.90;;;;;;5096668;28;20449;-81
2023/06/21 09:28:48;;;;;;;15.60;11.00;;;25.70;74.90;;;;;;5091410;28;20445;-83
2023/06/21 09:31:16;;;;;;;13.70;10.70;;;25.80;75.00;;;;;;5061180;28;21025;-80
2023/06/21 09:33:45;;;;;;;14.50;10.30;;;25.80;75.00;;;;;;5099375;28;20464;-83
2023/06/21 09:36:14;;;;;;;14.17;11.77;;;25.90;74.90;;;;;;5092565;28;20455;-83
2023/06/21 09:38:42;;;;;;;15.47;9.90;;;25.90;74.90;;;;;;5072647;28;20525;-82
2023/06/21 09:41:12;;;;;;;16.00;9.20;;;25.90;74.90;;;;;;5068038;28;20551;-84
2023/06/21 09:43:42;;;;;;;16.40;10.80;;;26.00;74.80;;;;;;5073962;28;20463;-82
2023/06/21 09:46:13;;;;;;;12.63;9.60;;;26.00;74.70;;;;;;5075518;28;20536;-83
2023/06/21 09:48:42;;;;;;;13.70;10.90;;;26.10;74.70;;;;;;5090496;28;20503;-86
2023/06/21 09:51:12;;;;;;;14.10;11.40;;;26.10;74.50;;;;;;5082636;28;20452;-82
2023/06/21 09:53:43;;;;;;;15.30;11.30;;;26.10;74.70;;;;;;5078067;28;20594;-85
2023/06/21 09:56:14;;;;;;;16.20;11.33;;;26.10;74.60;;;;;;5065955;28;20444;-82
2023/06/21 09:58:43;;;;;;;16.13;12.67;;;26.10;74.40;;;;;;5088729;28;20469;-83
2023/06/21 10:01:16;;;;;;;18.67;11.50;;;26.10;74.40;;;;;;5067103;28;20563;-82
2023/06/21 10:03:45;;;;;;;14.67;11.67;;;26.10;74.40;;;;;;5094660;28;20457;-85
2023/06/21 10:06:16;;;;;;;15.97;11.37;;;26.10;74.50;;;;;;5095791;28;20536;-83
2023/06/21 10:08:49;;;;;;;14.23;11.90;;;26.10;74.50;;;;;;5104293;28;20444;-84
2023/06/21 10:11:17;;;;;;;14.40;11.67;;;26.20;74.20;;;;;;5089268;28;20454;-82
2023/06/21 10:13:46;;;;;;;14.23;11.27;;;26.20;74.20;;;;;;5100164;28;20448;-82
2023/06/21 10:16:19;;;;;;;14.57;11.10;;;26.20;74.00;;;;;;5071679;28;20484;-86
2023/06/21 10:18:49;;;;;;;15.80;11.60;;;26.20;73.90;;;;;;5090646;28;20598;-84
2023/06/21 10:21:20;;;;;;;15.40;11.47;;;26.20;73.90;;;;;;5083724;28;20449;-81
2023/06/21 10:23:50;;;;;;;19.20;11.63;;;26.30;73.70;;;;;;5092614;28;20504;-80
2023/06/21 10:26:20;;;;;;;13.60;11.50;;;26.30;73.60;;;;;;5062109;28;21272;-81
2023/06/21 10:28:55;;;;;;;14.70;11.03;;;26.30;73.40;;;;;;5091717;28;20517;-82
2023/06/21 10:31:33;;;;;;;14.43;11.80;;;26.40;73.20;;;;;;5063553;28;20484;-80
2023/06/21 10:34:04;;;;;;;18.00;11.43;;;26.40;73.30;;;;;;5093580;28;20440;-81
2023/06/21 10:36:36;;;;;;;15.50;12.60;;;26.40;73.20;;;;;;5065289;28;20950;-81
2023/06/21 10:39:09;;;;;;;13.30;11.90;;;26.50;73.10;;;;;;5092384;28;20753;-80
2023/06/21 10:41:40;;;;;;;13.70;12.20;;;26.50;73.10;;;;;;5081392;28;20518;-83
2023/06/21 10:44:08;;;;;;;16.87;11.80;;;26.50;72.90;;;;;;5084340;28;20474;-83
2023/06/21 10:46:41;;;;;;;13.57;12.10;;;26.60;73.00;;;;;;5072835;28;20455;-81
2023/06/21 10:49:15;;;;;;;14.20;11.13;;;26.60;72.90;;;;;;5088597;28;20480;-82
2023/06/21 10:51:44;;;;;;;16.30;11.40;;;26.60;72.80;;;;;;5062956;28;20467;-83
2023/06/21 10:54:13;;;;;;;16.13;11.17;;;26.70;72.70;;;;;;5090857;28;20532;-82
2023/06/21 10:56:42;;;;;;;13.20;10.93;;;26.60;72.60;;;;;;5088606;28;20903;-82
2023/06/21 10:59:11;;;;;;;13.50;10.63;;;26.60;72.60;;;;;;5082141;28;20483;-82
2023/06/21 11:01:42;;;;;;;14.00;11.30;;;26.60;72.50;;;;;;5083411;28;20575;-82
2023/06/21 11:04:10;;;;;;;13.57;10.90;;;26.60;72.60;;;;;;5080908;28;21028;-82
2023/06/21 11:06:43;;;;;;;22.87;14.10;;;26.50;72.80;;;;;;5072462;28;20492;-81
2023/06/21 11:09:14;;;;;;;19.17;13.47;;;26.50;73.00;;;;;;5092041;28;20489;-82
2023/06/21 11:11:50;;;;;;;14.17;11.57;;;26.50;73.00;;;;;;5086974;28;20451;-81
2023/06/21 11:14:23;;;;;;;13.23;11.77;;;26.50;73.10;;;;;;5090021;28;20525;-82
2023/06/21 11:17:12;;;;;;;13.43;11.07;;;26.50;73.00;;;;;;5088106;28;20492;-79
2023/06/21 11:19:40;;;;;;;13.27;11.30;;;26.50;73.00;;;;;;5076149;28;20460;-80
2023/06/21 11:22:16;;;;;;;15.40;11.97;;;26.50;73.00;;;;;;5087297;28;20463;-82
2023/06/21 11:24:57;;;;;;;17.90;12.00;;;26.50;73.00;;;;;;5093579;28;20570;-81
2023/06/21 11:27:26;;;;;;;17.50;11.27;;;26.50;73.00;;;;;;5096422;28;20474;-81
2023/06/21 11:29:59;;;;;;;16.43;11.17;;;26.50;73.10;;;;;;5088440;28;20479;-80
2023/06/21 11:32:30;;;;;;;16.20;11.77;;;26.50;73.10;;;;;;5082591;28;20475;-79
2023/06/21 11:35:00;;;;;;;15.30;11.40;;;26.50;73.10;;;;;;5089584;28;20571;-81
2023/06/21 11:37:31;;;;;;;15.30;10.37;;;26.50;73.10;;;;;;5090693;28;20445;-80
2023/06/21 11:40:00;;;;;;;13.53;10.47;;;26.50;73.20;;;;;;5094421;28;20990;-80
2023/06/21 11:42:34;;;;;;;14.90;10.53;;;26.50;73.20;;;;;;5090525;28;20445;-81
2023/06/21 11:45:23;;;;;;;14.63;10.37;;;26.50;73.20;;;;;;5067685;28;20460;-81
2023/06/21 11:48:08;;;;;;;12.63;9.90;;;26.50;73.10;;;;;;5097068;28;20451;-80
2023/06/21 11:50:38;;;;;;;15.40;10.77;;;26.50;72.90;;;;;;5068326;28;20448;-80
2023/06/21 11:53:22;;;;;;;15.43;10.23;;;26.40;72.90;;;;;;5068029;28;20457;-80
2023/06/21 11:55:53;;;;;;;13.93;10.23;;;26.50;72.80;;;;;;5071934;28;20876;-81
2023/06/21 11:58:21;;;;;;;14.50;10.37;;;26.40;72.90;;;;;;5097532;28;20476;-81
2023/06/21 12:00:50;;;;;;;13.80;9.47;;;26.40;72.90;;;;;;5070428;28;20548;-81
2023/06/21 12:03:22;;;;;;;13.17;9.93;;;26.40;73.00;;;;;;5091413;28;20533;-80
2023/06/21 12:05:53;;;;;;;12.30;8.93;;;26.40;72.90;;;;;;5073343;28;20464;-80
2023/06/21 12:08:25;;;;;;;11.87;9.77;;;26.40;72.90;;;;;;5077552;28;20451;-80
2023/06/21 12:10:53;;;;;;;14.53;10.50;;;26.40;72.90;;;;;;5066471;28;20928;-80
2023/06/21 12:13:21;;;;;;;12.20;10.03;;;26.40;72.90;;;;;;5073837;28;20453;-80
2023/06/21 12:15:52;;;;;;;16.27;10.07;;;26.50;72.90;;;;;;5073567;28;20452;-80
2023/06/21 12:18:23;;;;;;;11.00;8.93;;;26.50;72.80;;;;;;5091193;28;20457;-81
2023/06/21 12:20:53;;;;;;;14.30;9.47;;;26.50;72.80;;;;;;5082645;28;20514;-80
2023/06/21 12:23:22;;;;;;;12.07;8.70;;;26.50;72.80;;;;;;5086422;28;20921;-81
2023/06/21 12:25:52;;;;;;;11.50;9.10;;;26.60;72.70;;;;;;5093467;28;20461;-79
2023/06/21 12:28:22;;;;;;;12.87;9.20;;;26.70;72.60;;;;;;5094881;28;20476;-81
2023/06/21 12:30:51;;;;;;;11.13;8.60;;;26.70;72.50;;;;;;5095505;28;20559;-80
2023/06/21 12:33:19;;;;;;;12.80;8.87;;;26.70;72.50;;;;;;5096635;28;20465;-81
2023/06/21 12:35:48;;;;;;;13.07;9.57;;;26.80;72.40;;;;;;5099095;28;20493;-80
2023/06/21 12:38:17;;;;;;;12.37;9.77;;;26.80;72.30;;;;;;5098979;28;21049;-80
2023/06/21 12:40:58;;;;;;;10.70;8.10;;;26.80;72.30;;;;;;5093351;28;20473;-79
2023/06/21 12:43:37;;;;;;;13.63;8.93;;;26.90;72.00;;;;;;5079628;28;20468;-81
2023/06/21 12:46:06;;;;;;;14.10;9.30;;;27.00;71.80;;;;;;5083150;28;20473;-80
2023/06/21 12:48:35;;;;;;;11.90;9.20;;;27.00;71.90;;;;;;5061444;28;20544;-79